Time;durP1;ratioP1;P1;durP2;ratioP2;P2;SDS_P1;SDS_P2;PMS_P1;PMS_P2;Temp;Humidity;BMP_temperature;BMP_pressure;BME280_temperature;BME280_humidity;BME280_pressure;Samples;Min_cycle;Max_cycle;Signal;HPM_P1;HPM_P2
2022/07/06 00:02:08;;;;;;;3.42;1.13;;;15.40;99.90;;;;;;5084362;27;36529;-53
2022/07/06 00:04:36;;;;;;;3.60;0.85;;;15.40;99.90;;;;;;5086856;27;40775;-55
2022/07/06 00:07:06;;;;;;;3.72;1.10;;;15.40;99.90;;;;;;5086231;27;38993;-55
2022/07/06 00:09:33;;;;;;;3.63;0.90;;;15.40;99.90;;;;;;5086109;27;36789;-53
2022/07/06 00:12:01;;;;;;;4.97;1.25;;;15.30;99.90;;;;;;5087904;27;39176;-55
2022/07/06 00:14:28;;;;;;;2.50;0.80;;;15.30;99.90;;;;;;5088622;27;38301;-55
2022/07/06 00:16:55;;;;;;;4.10;0.80;;;15.20;99.90;;;;;;5087529;27;37417;-54
2022/07/06 00:19:24;;;;;;;4.78;1.10;;;15.20;99.90;;;;;;5089090;27;36270;-55
2022/07/06 00:21:51;;;;;;;6.13;1.20;;;15.20;99.90;;;;;;5088151;27;37059;-55
2022/07/06 00:24:19;;;;;;;4.30;1.13;;;15.20;99.90;;;;;;5086884;27;38387;-55
2022/07/06 00:26:46;;;;;;;4.82;0.80;;;15.20;99.90;;;;;;5086624;27;36583;-54
2022/07/06 00:29:13;;;;;;;4.85;1.38;;;15.10;99.90;;;;;;5086892;27;37570;-55
2022/07/06 00:31:41;;;;;;;7.35;1.95;;;15.20;99.90;;;;;;5087424;27;36501;-55
2022/07/06 00:34:08;;;;;;;3.65;1.05;;;15.20;99.90;;;;;;5084210;27;37522;-55
2022/07/06 00:36:37;;;;;;;4.30;1.20;;;15.20;99.90;;;;;;5085729;27;37262;-54
2022/07/06 00:39:04;;;;;;;4.35;1.05;;;15.20;99.90;;;;;;5086125;27;37921;-55
2022/07/06 00:41:31;;;;;;;3.25;1.08;;;15.20;99.90;;;;;;5087482;27;36659;-55
2022/07/06 00:43:59;;;;;;;5.70;0.93;;;15.30;99.90;;;;;;5086240;27;38195;-55
2022/07/06 00:46:29;;;;;;;3.75;0.90;;;15.30;99.90;;;;;;5085732;27;38714;-55
2022/07/06 00:48:56;;;;;;;5.43;0.88;;;15.30;99.90;;;;;;5085869;27;38154;-55
2022/07/06 00:51:27;;;;;;;3.47;0.70;;;15.30;99.90;;;;;;5086700;27;36361;-54
2022/07/06 00:53:56;;;;;;;3.47;1.00;;;15.30;99.90;;;;;;5086626;27;37761;-55
2022/07/06 00:56:24;;;;;;;5.68;1.05;;;15.30;99.90;;;;;;5085567;27;37296;-54
2022/07/06 00:58:52;;;;;;;2.90;0.85;;;15.30;99.90;;;;;;5084874;27;37698;-55
2022/07/06 01:01:19;;;;;;;6.97;0.80;;;15.30;99.90;;;;;;5086379;27;37731;-55
2022/07/06 01:03:46;;;;;;;5.68;1.42;;;15.30;99.90;;;;;;5084384;27;39062;-55
2022/07/06 01:06:14;;;;;;;7.75;1.00;;;15.30;99.90;;;;;;5085134;27;37426;-54
2022/07/06 01:08:41;;;;;;;4.90;0.73;;;15.40;99.90;;;;;;5082262;27;35623;-55
2022/07/06 01:11:12;;;;;;;4.57;1.05;;;15.30;99.90;;;;;;5086036;27;37367;-55
2022/07/06 01:13:40;;;;;;;7.53;0.90;;;15.30;99.90;;;;;;5084885;27;37578;-55
2022/07/06 01:16:08;;;;;;;6.70;1.48;;;15.30;99.90;;;;;;5084787;27;37278;-55
2022/07/06 01:18:36;;;;;;;2.63;0.70;;;15.40;99.90;;;;;;5084836;27;35753;-55
2022/07/06 01:21:09;;;;;;;5.47;1.10;;;15.40;99.90;;;;;;5087280;27;36173;-55
2022/07/06 01:23:41;;;;;;;;;;;15.50;99.90;;;;;;5087685;27;37163;-55
2022/07/06 01:26:10;;;;;;;4.70;1.08;;;15.30;99.90;;;;;;5086685;27;38863;-54
2022/07/06 01:28:38;;;;;;;4.32;0.80;;;15.30;99.90;;;;;;5087047;27;36476;-55
2022/07/06 01:31:05;;;;;;;4.45;0.98;;;15.30;99.90;;;;;;5085474;27;36467;-52
2022/07/06 01:33:33;;;;;;;7.40;1.15;;;15.30;99.90;;;;;;5084014;27;37295;-55
2022/07/06 01:36:01;;;;;;;3.78;0.73;;;15.40;99.90;;;;;;5085052;27;39136;-55
2022/07/06 01:38:29;;;;;;;6.05;1.00;;;15.40;99.90;;;;;;5085288;27;37679;-55
2022/07/06 01:40:57;;;;;;;3.75;0.93;;;15.40;99.90;;;;;;5085620;27;36584;-55
2022/07/06 01:43:24;;;;;;;3.83;0.85;;;15.40;99.90;;;;;;5086189;27;37359;-54
2022/07/06 01:45:51;;;;;;;4.97;1.15;;;15.40;99.90;;;;;;5084400;27;38331;-54
2022/07/06 01:48:18;;;;;;;4.18;1.10;;;15.40;99.90;;;;;;5086003;27;37195;-53
2022/07/06 01:50:46;;;;;;;4.18;1.00;;;15.50;99.90;;;;;;5084440;27;35197;-55
2022/07/06 01:53:13;;;;;;;5.45;1.10;;;15.40;99.90;;;;;;5085627;27;39083;-55
2022/07/06 01:55:42;;;;;;;5.40;0.88;;;15.40;99.90;;;;;;5087167;27;36714;-54
2022/07/06 01:58:09;;;;;;;9.02;1.13;;;15.40;99.90;;;;;;5085391;27;38126;-55
2022/07/06 02:00:36;;;;;;;6.35;1.13;;;15.40;99.90;;;;;;5085551;27;36777;-54
2022/07/06 02:03:04;;;;;;;7.57;1.00;;;15.40;99.90;;;;;;5085748;27;37519;-54
2022/07/06 02:05:31;;;;;;;6.07;1.13;;;15.40;99.90;;;;;;5085312;27;37144;-54
2022/07/06 02:07:58;;;;;;;4.05;0.90;;;15.40;99.90;;;;;;5085026;27;36374;-55
2022/07/06 02:10:26;;;;;;;5.55;1.13;;;15.40;99.90;;;;;;5085590;27;37205;-55
2022/07/06 02:12:54;;;;;;;3.92;1.00;;;15.30;99.90;;;;;;5084837;27;37514;-54
2022/07/06 02:15:22;;;;;;;7.85;1.00;;;15.30;99.90;;;;;;5085776;27;37353;-54
2022/07/06 02:17:49;;;;;;;3.33;0.77;;;15.40;99.90;;;;;;5086748;27;36910;-55
2022/07/06 02:20:16;;;;;;;5.63;1.10;;;15.40;99.90;;;;;;5087958;27;37318;-55
2022/07/06 02:22:44;;;;;;;4.72;1.00;;;15.40;99.90;;;;;;5090055;27;37077;-52
2022/07/06 02:25:11;;;;;;;4.43;0.85;;;15.40;99.90;;;;;;5089555;27;38819;-55
2022/07/06 02:27:38;;;;;;;5.65;0.90;;;15.30;99.90;;;;;;5088721;27;37519;-55
2022/07/06 02:30:08;;;;;;;4.72;0.98;;;15.40;99.90;;;;;;5090117;27;37350;-55
2022/07/06 02:32:35;;;;;;;6.30;1.33;;;15.30;99.90;;;;;;5089271;27;36238;-54
2022/07/06 02:35:03;;;;;;;5.28;1.13;;;15.30;99.90;;;;;;5089673;27;39290;-54
2022/07/06 02:37:30;;;;;;;4.13;1.00;;;15.20;99.90;;;;;;5087841;27;37190;-53
2022/07/06 02:39:58;;;;;;;6.53;1.42;;;15.20;99.90;;;;;;5089221;27;34808;-55
2022/07/06 02:42:25;;;;;;;5.13;1.05;;;15.10;99.90;;;;;;5088322;27;37959;-54
2022/07/06 02:44:54;;;;;;;4.28;0.90;;;15.10;99.90;;;;;;5086699;27;40481;-55
2022/07/06 02:47:22;;;;;;;5.18;0.90;;;15.00;99.90;;;;;;5087059;27;37743;-54
2022/07/06 02:49:50;;;;;;;6.78;0.98;;;15.00;99.90;;;;;;5087689;27;36609;-54
2022/07/06 02:52:17;;;;;;;4.43;1.17;;;14.90;99.90;;;;;;5085196;27;37705;-54
2022/07/06 02:54:44;;;;;;;3.70;0.93;;;14.90;99.90;;;;;;5087007;27;38092;-54
2022/07/06 02:57:12;;;;;;;6.15;1.00;;;14.80;99.90;;;;;;5086021;27;36794;-53
2022/07/06 02:59:39;;;;;;;3.80;0.82;;;14.80;99.90;;;;;;5087848;27;38061;-54
2022/07/06 03:02:06;;;;;;;4.03;1.20;;;14.80;99.90;;;;;;5087418;27;38600;-55
2022/07/06 03:04:35;;;;;;;12.38;1.73;;;14.70;99.90;;;;;;5087070;27;36366;-55
2022/07/06 03:07:03;;;;;;;6.38;1.55;;;14.70;99.90;;;;;;5086113;27;38264;-54
2022/07/06 03:09:30;;;;;;;4.72;1.10;;;14.60;99.90;;;;;;5088097;27;35277;-54
2022/07/06 03:11:58;;;;;;;5.75;0.93;;;14.60;99.90;;;;;;5087367;27;37711;-55
2022/07/06 03:14:26;;;;;;;4.85;0.90;;;14.60;99.90;;;;;;5088185;27;38464;-54
2022/07/06 03:16:54;;;;;;;8.45;1.35;;;14.60;99.90;;;;;;5086753;27;38007;-54
2022/07/06 03:19:22;;;;;;;4.50;1.15;;;14.50;99.90;;;;;;5089137;27;35473;-55
2022/07/06 03:21:50;;;;;;;4.78;0.85;;;14.50;99.90;;;;;;5088609;27;38896;-55
2022/07/06 03:24:18;;;;;;;6.07;0.90;;;14.50;99.90;;;;;;5089574;27;38817;-55
2022/07/06 03:26:45;;;;;;;9.05;1.30;;;14.50;99.90;;;;;;5086701;27;37404;-55
2022/07/06 03:29:12;;;;;;;5.35;1.38;;;14.40;99.90;;;;;;5088592;27;39138;-54
2022/07/06 03:31:39;;;;;;;2.10;0.98;;;14.40;99.90;;;;;;5088686;27;37426;-54
2022/07/06 03:34:07;;;;;;;5.03;1.00;;;14.30;99.90;;;;;;5088520;27;36945;-55
2022/07/06 03:36:34;;;;;;;5.72;1.08;;;14.30;99.90;;;;;;5088729;27;38631;-54
2022/07/06 03:39:03;;;;;;;4.53;1.42;;;14.30;99.90;;;;;;5086673;27;37289;-55
2022/07/06 03:41:31;;;;;;;9.27;1.25;;;14.20;99.90;;;;;;5085571;27;38402;-54
2022/07/06 03:43:58;;;;;;;7.68;1.33;;;14.20;99.90;;;;;;5086740;27;35827;-54
2022/07/06 03:46:26;;;;;;;3.15;0.93;;;14.20;99.90;;;;;;5086984;27;36674;-54
2022/07/06 03:48:53;;;;;;;6.93;1.45;;;14.10;99.90;;;;;;5087153;27;36388;-55
2022/07/06 03:51:20;;;;;;;4.68;0.82;;;14.10;99.90;;;;;;5087102;27;36366;-53
2022/07/06 03:53:48;;;;;;;4.68;1.02;;;14.10;99.90;;;;;;5087527;27;37388;-55
2022/07/06 03:56:28;;;;;;;3.50;1.10;;;14.10;99.90;;;;;;5086639;27;37462;-53
2022/07/06 03:58:56;;;;;;;2.97;0.80;;;14.10;99.90;;;;;;5086721;27;36325;-55
2022/07/06 04:01:23;;;;;;;5.97;1.15;;;14.20;99.90;;;;;;5086777;27;36341;-55
2022/07/06 04:03:51;;;;;;;5.63;1.20;;;14.30;99.90;;;;;;5087869;27;38764;-54
2022/07/06 04:06:18;;;;;;;2.40;0.90;;;14.40;99.90;;;;;;5087031;27;38119;-55
2022/07/06 04:08:46;;;;;;;5.85;1.10;;;14.50;99.90;;;;;;5086541;27;35177;-55
2022/07/06 04:11:13;;;;;;;5.15;1.27;;;14.50;99.90;;;;;;5086273;27;37072;-55
2022/07/06 04:13:42;;;;;;;3.92;1.42;;;14.60;99.90;;;;;;5087378;27;37481;-54
2022/07/06 04:16:10;;;;;;;6.40;0.90;;;14.60;99.90;;;;;;5088503;27;36930;-55
2022/07/06 04:18:37;;;;;;;6.63;1.20;;;14.60;99.90;;;;;;5088337;27;36593;-55
2022/07/06 04:21:04;;;;;;;4.25;0.85;;;14.60;99.90;;;;;;5088323;27;37800;-55
2022/07/06 04:23:32;;;;;;;5.93;0.90;;;14.60;99.90;;;;;;5085738;27;37962;-53
2022/07/06 04:25:59;;;;;;;5.95;1.08;;;14.70;99.90;;;;;;5085625;27;37046;-54
2022/07/06 04:28:27;;;;;;;3.72;1.02;;;14.60;99.90;;;;;;5085055;27;35066;-54
2022/07/06 04:30:56;;;;;;;5.00;1.60;;;14.70;99.90;;;;;;5084850;27;38779;-54
2022/07/06 04:33:23;;;;;;;4.20;0.88;;;14.70;99.90;;;;;;5087029;27;39127;-53
2022/07/06 04:35:50;;;;;;;4.38;0.77;;;14.80;99.90;;;;;;5086229;27;37890;-55
2022/07/06 04:38:18;;;;;;;5.85;1.58;;;14.80;99.90;;;;;;5085530;27;36332;-54
2022/07/06 04:40:47;;;;;;;8.43;1.30;;;14.80;99.90;;;;;;5087062;27;37714;-55
2022/07/06 04:43:14;;;;;;;4.15;1.20;;;14.80;99.90;;;;;;5085799;27;38705;-54
2022/07/06 04:45:41;;;;;;;6.22;0.95;;;14.80;99.90;;;;;;5086088;27;37188;-55
2022/07/06 04:48:10;;;;;;;3.03;0.70;;;14.90;99.90;;;;;;5086490;27;36664;-55
2022/07/06 04:50:37;;;;;;;4.05;1.38;;;14.80;99.90;;;;;;5083816;27;37035;-54
2022/07/06 04:53:05;;;;;;;3.88;0.77;;;14.90;99.90;;;;;;5088233;27;37968;-54
2022/07/06 04:55:32;;;;;;;5.72;0.90;;;14.90;99.90;;;;;;5084731;27;38884;-55
2022/07/06 04:57:59;;;;;;;9.48;1.00;;;14.90;99.90;;;;;;5086495;27;37099;-55
2022/07/06 05:00:27;;;;;;;14.27;1.10;;;14.90;99.90;;;;;;5086330;27;37638;-55
2022/07/06 05:02:54;;;;;;;3.67;0.70;;;14.90;99.90;;;;;;5087659;27;36949;-55
2022/07/06 05:05:23;;;;;;;4.15;0.80;;;14.90;99.90;;;;;;5086391;27;38419;-55
2022/07/06 05:07:50;;;;;;;5.78;1.00;;;15.00;99.90;;;;;;5087517;27;36702;-55
2022/07/06 05:10:17;;;;;;;7.28;0.95;;;15.00;99.90;;;;;;5085466;27;38915;-55
2022/07/06 05:12:45;;;;;;;5.35;1.10;;;15.00;99.90;;;;;;5087861;27;39131;-55
2022/07/06 05:15:12;;;;;;;5.65;0.98;;;15.00;99.90;;;;;;5086545;27;36490;-54
2022/07/06 05:17:39;;;;;;;5.32;0.82;;;15.00;99.90;;;;;;5087052;27;37064;-55
2022/07/06 05:20:08;;;;;;;3.47;0.63;;;15.00;99.90;;;;;;5081734;27;36509;-55
2022/07/06 05:22:37;;;;;;;6.10;1.63;;;15.00;99.90;;;;;;5085343;27;36282;-54
2022/07/06 05:25:05;;;;;;;3.92;1.00;;;15.10;99.90;;;;;;5083441;27;36746;-55
2022/07/06 05:27:32;;;;;;;3.58;1.08;;;15.00;99.90;;;;;;5085107;27;36092;-56
2022/07/06 05:30:00;;;;;;;5.35;0.90;;;15.00;99.90;;;;;;5084270;27;37538;-55
2022/07/06 05:32:27;;;;;;;8.43;1.48;;;15.00;99.90;;;;;;5085610;27;36033;-55
2022/07/06 05:34:54;;;;;;;4.97;0.93;;;15.00;99.90;;;;;;5085075;27;38169;-56
2022/07/06 05:37:21;;;;;;;3.50;1.15;;;15.00;99.90;;;;;;5086081;27;35796;-55
2022/07/06 05:39:50;;;;;;;6.93;1.25;;;15.00;99.90;;;;;;5085568;27;36185;-55
2022/07/06 05:42:18;;;;;;;3.45;0.75;;;15.00;99.90;;;;;;5086564;27;37191;-55
2022/07/06 05:44:45;;;;;;;4.82;0.90;;;15.10;99.90;;;;;;5086559;27;38535;-55
2022/07/06 05:50:15;;;;;;;3.90;0.80;;;15.30;99.90;;;;;;5085105;27;39863;-55
2022/07/06 05:52:45;;;;;;;5.40;1.10;;;15.40;99.90;;;;;;5085155;27;38473;-55
2022/07/06 05:55:15;;;;;;;4.80;0.93;;;15.40;99.90;;;;;;5088404;27;38052;-55
2022/07/06 05:57:42;;;;;;;2.72;0.63;;;15.40;99.90;;;;;;5090039;27;36387;-55
2022/07/06 06:00:10;;;;;;;2.08;0.57;;;15.30;99.90;;;;;;5090147;27;37789;-55
2022/07/06 06:02:39;;;;;;;3.80;0.63;;;15.40;99.90;;;;;;5089892;27;37309;-55
2022/07/06 06:05:08;;;;;;;2.42;0.60;;;15.40;99.90;;;;;;5086688;27;36983;-55
2022/07/06 06:07:37;;;;;;;4.07;0.80;;;15.30;99.90;;;;;;5086653;27;37045;-55
2022/07/06 06:10:06;;;;;;;3.92;0.80;;;15.30;99.90;;;;;;5083701;27;37324;-56
2022/07/06 06:12:35;;;;;;;3.72;0.65;;;15.30;99.90;;;;;;5087399;27;37298;-55
2022/07/06 06:15:06;;;;;;;3.67;0.68;;;15.30;99.90;;;;;;5088460;27;37853;-55
2022/07/06 06:17:34;;;;;;;5.07;0.70;;;15.40;99.90;;;;;;5087222;27;36667;-55
2022/07/06 06:20:01;;;;;;;3.65;1.10;;;15.40;99.90;;;;;;5088844;27;37262;-55
2022/07/06 06:22:29;;;;;;;3.08;0.50;;;15.40;99.90;;;;;;5088683;27;37312;-55
2022/07/06 06:24:56;;;;;;;5.25;1.30;;;15.40;99.90;;;;;;5088918;27;37776;-55
2022/07/06 06:27:23;;;;;;;11.13;3.78;;;15.40;99.90;;;;;;5089828;27;37369;-55
2022/07/06 06:29:52;;;;;;;10.50;3.03;;;15.40;99.90;;;;;;5088909;27;38104;-55
2022/07/06 06:32:19;;;;;;;15.23;4.15;;;15.40;99.90;;;;;;5089023;27;38485;-55
2022/07/06 06:34:49;;;;;;;9.60;1.73;;;15.40;99.90;;;;;;5089995;27;37947;-53
2022/07/06 06:37:17;;;;;;;8.40;1.15;;;15.40;99.90;;;;;;5089570;27;36874;-55
2022/07/06 06:39:44;;;;;;;4.95;1.00;;;15.50;99.90;;;;;;5089549;27;37457;-56
2022/07/06 06:42:11;;;;;;;5.07;0.80;;;15.50;99.90;;;;;;5084899;27;37554;-56
2022/07/06 06:44:39;;;;;;;3.88;0.63;;;15.60;99.90;;;;;;5085936;27;36896;-56
2022/07/06 06:47:10;;;;;;;5.40;0.90;;;15.70;99.90;;;;;;5087731;27;37572;-56
2022/07/06 06:49:38;;;;;;;5.40;0.70;;;15.90;99.90;;;;;;5087400;27;36415;-56
2022/07/06 06:52:05;;;;;;;2.30;0.70;;;16.00;99.90;;;;;;5087855;27;37965;-56
2022/07/06 06:54:33;;;;;;;4.15;1.02;;;16.20;99.90;;;;;;5088825;27;37128;-56
2022/07/06 06:57:00;;;;;;;10.00;1.00;;;16.20;99.90;;;;;;5088222;27;36213;-56
2022/07/06 06:59:27;;;;;;;9.55;1.52;;;16.30;99.90;;;;;;5086064;27;39208;-56
2022/07/06 07:01:54;;;;;;;4.00;1.08;;;16.30;99.90;;;;;;5085292;27;37692;-56
2022/07/06 07:04:23;;;;;;;7.75;1.88;;;16.30;99.90;;;;;;5087961;27;36857;-56
2022/07/06 07:06:50;;;;;;;8.15;1.83;;;16.20;99.90;;;;;;5089314;27;35279;-56
2022/07/06 07:09:18;;;;;;;7.90;1.90;;;16.30;99.90;;;;;;5087880;27;38286;-56
2022/07/06 07:11:45;;;;;;;7.53;2.50;;;16.20;99.90;;;;;;5089199;27;38266;-56
2022/07/06 07:14:12;;;;;;;6.22;2.00;;;16.20;99.90;;;;;;5089405;27;36728;-57
2022/07/06 07:16:39;;;;;;;5.88;1.58;;;16.50;99.90;;;;;;5090321;27;36580;-57
2022/07/06 07:19:07;;;;;;;6.75;1.88;;;16.80;99.90;;;;;;5090382;27;36288;-56
2022/07/06 07:21:36;;;;;;;8.23;1.60;;;17.10;99.90;;;;;;5089600;27;38382;-56
2022/07/06 07:24:03;;;;;;;6.78;1.95;;;17.40;99.90;;;;;;5088965;27;38909;-56
2022/07/06 07:26:33;;;;;;;8.80;1.40;;;17.40;99.90;;;;;;5089575;27;37504;-57
2022/07/06 07:29:00;;;;;;;6.38;0.82;;;17.50;99.90;;;;;;5088764;27;37833;-57
2022/07/06 07:31:28;;;;;;;5.38;0.70;;;17.50;99.90;;;;;;5089284;27;37473;-57
2022/07/06 07:33:56;;;;;;;8.23;1.17;;;17.50;99.80;;;;;;5086427;27;35671;-57
2022/07/06 07:36:24;;;;;;;6.65;0.93;;;17.60;99.40;;;;;;5083844;27;35415;-57
2022/07/06 07:38:53;;;;;;;4.40;0.60;;;17.60;98.80;;;;;;5089540;27;38592;-57
2022/07/06 07:41:20;;;;;;;2.92;0.57;;;17.50;98.60;;;;;;5088182;27;38103;-56
2022/07/06 07:43:48;;;;;;;4.03;0.80;;;17.50;99.00;;;;;;5087678;27;36835;-57
2022/07/06 07:46:15;;;;;;;6.25;1.25;;;17.70;99.00;;;;;;5087758;27;36216;-57
2022/07/06 07:48:43;;;;;;;9.32;0.93;;;17.90;98.00;;;;;;5089233;27;36410;-55
2022/07/06 07:51:10;;;;;;;5.68;0.70;;;18.10;97.50;;;;;;5086334;27;36824;-56
2022/07/06 07:53:37;;;;;;;2.47;0.63;;;18.20;96.70;;;;;;5087075;27;35815;-56
2022/07/06 07:56:06;;;;;;;4.57;0.85;;;18.30;96.20;;;;;;5089305;27;36731;-55
2022/07/06 07:58:34;;;;;;;5.30;0.55;;;18.40;96.00;;;;;;5086069;27;37940;-56
2022/07/06 08:01:01;;;;;;;4.50;0.80;;;18.50;95.60;;;;;;5085108;27;37201;-56
2022/07/06 08:03:28;;;;;;;6.05;0.88;;;18.40;94.90;;;;;;5087422;27;36918;-56
2022/07/06 08:05:56;;;;;;;6.35;0.98;;;18.20;95.00;;;;;;5085951;27;37651;-56
2022/07/06 08:08:23;;;;;;;5.97;1.38;;;18.20;95.40;;;;;;5087751;27;37518;-56
2022/07/06 08:10:50;;;;;;;4.43;0.70;;;18.10;95.40;;;;;;5087064;27;38258;-56
2022/07/06 08:13:19;;;;;;;4.25;0.50;;;18.00;95.20;;;;;;5086492;27;36989;-56
2022/07/06 08:15:46;;;;;;;3.17;0.70;;;17.90;94.90;;;;;;5086096;27;37325;-56
2022/07/06 08:18:13;;;;;;;4.90;1.08;;;17.90;95.30;;;;;;5088180;27;37313;-56
2022/07/06 08:20:41;;;;;;;3.75;0.70;;;17.90;95.70;;;;;;5086065;27;36660;-56
2022/07/06 08:23:08;;;;;;;2.80;0.77;;;18.10;95.80;;;;;;5087438;27;36984;-56
2022/07/06 08:25:38;;;;;;;2.72;0.50;;;18.20;95.80;;;;;;5087777;27;35320;-56
2022/07/06 08:28:06;;;;;;;4.20;0.75;;;18.30;95.10;;;;;;5085849;27;38590;-56
2022/07/06 08:30:35;;;;;;;2.88;0.43;;;18.40;94.50;;;;;;5087276;27;38001;-56
2022/07/06 08:33:02;;;;;;;1.50;0.40;;;18.40;94.30;;;;;;5088010;27;38275;-56
2022/07/06 08:35:30;;;;;;;3.25;0.57;;;18.20;94.20;;;;;;5084430;27;35298;-56
2022/07/06 08:37:58;;;;;;;5.15;0.93;;;18.20;94.80;;;;;;5085437;27;37833;-56
2022/07/06 08:40:26;;;;;;;1.25;0.30;;;18.30;95.00;;;;;;5088204;27;37069;-56
2022/07/06 08:42:55;;;;;;;4.75;0.65;;;18.40;94.70;;;;;;5086660;27;37873;-56
2022/07/06 08:45:22;;;;;;;5.20;0.52;;;18.50;94.60;;;;;;5082729;27;36303;-56
2022/07/06 08:47:51;;;;;;;4.47;0.70;;;18.50;94.50;;;;;;5086571;27;37673;-56
2022/07/06 08:50:20;;;;;;;3.40;0.70;;;18.60;94.40;;;;;;5085457;27;37696;-56
2022/07/06 08:52:49;;;;;;;4.15;0.57;;;18.60;94.10;;;;;;5082652;27;37707;-56
2022/07/06 08:55:17;;;;;;;6.35;1.00;;;18.40;93.90;;;;;;5086579;27;37295;-56
2022/07/06 08:57:47;;;;;;;6.00;1.23;;;18.30;94.30;;;;;;5085401;27;36903;-56
2022/07/06 09:00:16;;;;;;;3.33;0.60;;;18.10;95.30;;;;;;5086604;27;36382;-56
2022/07/06 09:02:44;;;;;;;2.97;0.68;;;18.00;95.70;;;;;;5085362;27;37431;-56
2022/07/06 09:05:15;;;;;;;5.32;0.85;;;17.90;95.90;;;;;;5087704;27;36061;-56
2022/07/06 09:07:45;;;;;;;3.08;0.60;;;17.80;96.10;;;;;;5085522;27;38435;-56
2022/07/06 09:10:13;;;;;;;4.28;0.63;;;17.80;96.00;;;;;;5087015;27;38533;-56
2022/07/06 09:12:40;;;;;;;4.25;1.13;;;17.80;96.20;;;;;;5083883;27;36233;-55
2022/07/06 09:15:08;;;;;;;3.35;0.52;;;18.00;96.30;;;;;;5087011;27;39876;-56
2022/07/06 09:17:39;;;;;;;4.97;0.70;;;18.20;96.20;;;;;;5087496;27;38412;-56
2022/07/06 09:20:09;;;;;;;7.45;1.20;;;18.30;95.70;;;;;;5086326;27;38175;-56
2022/07/06 09:22:39;;;;;;;10.02;1.70;;;18.30;95.30;;;;;;5088495;27;36912;-56
2022/07/06 09:25:08;;;;;;;7.28;1.42;;;18.30;95.10;;;;;;5086968;27;37018;-56
2022/07/06 09:27:39;;;;;;;8.43;1.90;;;18.20;95.70;;;;;;5087811;27;38046;-56
2022/07/06 09:30:08;;;;;;;6.03;1.15;;;18.40;96.00;;;;;;5086786;27;38181;-56
2022/07/06 09:32:40;;;;;;;5.00;1.15;;;18.90;96.70;;;;;;5086771;27;37543;-55
2022/07/06 09:35:08;;;;;;;13.07;1.30;;;19.30;96.10;;;;;;5087238;27;37246;-56
2022/07/06 09:37:40;;;;;;;6.93;0.98;;;19.40;94.80;;;;;;5087689;27;38371;-56
2022/07/06 09:40:18;;;;;;;10.32;1.10;;;19.30;94.10;;;;;;5088540;27;20105;-56
2022/07/06 09:42:46;;;;;;;10.77;1.73;;;19.10;92.90;;;;;;5087646;27;35680;-56
2022/07/06 09:45:13;;;;;;;17.08;1.63;;;19.00;93.60;;;;;;5087389;27;36894;-56
2022/07/06 09:47:47;;;;;;;4.90;0.80;;;18.90;93.80;;;;;;5087223;27;39540;-56
2022/07/06 09:50:17;;;;;;;5.78;1.35;;;18.70;94.00;;;;;;5086329;27;38366;-55
2022/07/06 09:52:56;;;;;;;5.93;1.13;;;18.70;94.10;;;;;;5086870;27;37107;-56
2022/07/06 09:55:23;;;;;;;50.63;4.07;;;18.70;94.20;;;;;;5084618;27;36738;-56
2022/07/06 09:57:55;;;;;;;13.32;1.38;;;18.70;94.20;;;;;;5086744;27;39002;-56
2022/07/06 10:00:23;;;;;;;34.42;2.42;;;18.80;94.50;;;;;;5087113;27;37848;-56
2022/07/06 10:02:50;;;;;;;6.75;1.33;;;18.80;94.50;;;;;;5086857;27;37586;-56
2022/07/06 10:05:19;;;;;;;4.93;0.70;;;18.80;94.10;;;;;;5086515;27;35444;-56
2022/07/06 10:07:50;;;;;;;6.97;1.20;;;18.70;94.20;;;;;;5086391;27;36693;-57
2022/07/06 10:10:19;;;;;;;7.38;0.77;;;18.70;94.20;;;;;;5085221;27;36242;-54
2022/07/06 10:12:50;;;;;;;29.48;18.23;;;18.70;94.40;;;;;;5087819;27;36471;-55
2022/07/06 10:15:19;;;;;;;46.53;35.78;;;18.90;95.20;;;;;;5087105;27;37459;-55
2022/07/06 10:17:48;;;;;;;23.00;7.70;;;19.10;94.70;;;;;;5088684;27;37621;-55
2022/07/06 10:20:17;;;;;;;15.05;2.75;;;19.40;94.20;;;;;;5086903;27;37584;-55
2022/07/06 10:22:45;;;;;;;6.10;1.42;;;19.60;93.40;;;;;;5083601;27;38046;-56
2022/07/06 10:25:13;;;;;;;6.35;1.00;;;19.70;92.70;;;;;;5087093;27;36693;-55
2022/07/06 10:27:43;;;;;;;12.00;1.10;;;19.90;92.30;;;;;;5086295;27;37426;-56
2022/07/06 10:30:11;;;;;;;6.00;1.02;;;20.00;92.00;;;;;;5086199;27;37709;-56
2022/07/06 10:32:41;;;;;;;6.88;1.30;;;19.90;91.50;;;;;;5085893;27;37879;-56
2022/07/06 10:35:09;;;;;;;5.72;1.00;;;19.80;91.40;;;;;;5085989;27;36044;-56
2022/07/06 10:37:36;;;;;;;2.88;0.88;;;19.70;91.60;;;;;;5085134;27;37109;-56
2022/07/06 10:42:56;;;;;;;7.47;1.05;;;19.50;91.40;;;;;;5090080;27;38992;-56
2022/07/06 10:45:52;;;;;;;6.53;0.88;;;19.70;92.40;;;;;;5087992;27;36815;-56
2022/07/06 10:48:21;;;;;;;5.20;0.90;;;19.90;92.40;;;;;;5089082;27;39516;-56
2022/07/06 10:50:50;;;;;;;4.63;0.70;;;20.10;92.10;;;;;;5089960;27;36758;-56
2022/07/06 10:53:18;;;;;;;4.63;0.60;;;20.30;91.60;;;;;;5088870;27;37091;-56
2022/07/06 10:55:50;;;;;;;4.53;0.88;;;20.40;91.30;;;;;;5090504;27;36853;-56
2022/07/06 10:58:36;;;;;;;3.58;0.77;;;20.50;91.00;;;;;;5088735;27;38356;-55
2022/07/06 11:01:05;;;;;;;3.15;0.70;;;20.60;88.60;;;;;;5089860;27;36913;-55
2022/07/06 11:03:38;;;;;;;4.88;1.08;;;20.70;88.40;;;;;;5088343;27;37093;-54
2022/07/06 11:06:11;;;;;;;4.68;0.85;;;20.90;90.20;;;;;;5085668;27;37549;-55
2022/07/06 11:08:55;;;;;;;3.83;0.70;;;20.90;87.90;;;;;;5087480;27;38909;-55
2022/07/06 11:11:25;;;;;;;3.83;0.80;;;20.80;86.40;;;;;;5086331;27;37043;-55
2022/07/06 11:13:56;;;;;;;3.50;1.10;;;20.60;87.00;;;;;;5086884;27;36027;-55
2022/07/06 11:16:26;;;;;;;2.47;0.70;;;20.60;88.60;;;;;;5087370;27;38521;-54
2022/07/06 11:19:05;;;;;;;3.15;0.75;;;20.70;89.20;;;;;;5087538;27;37278;-55
2022/07/06 11:21:36;;;;;;;5.93;0.70;;;20.90;87.60;;;;;;5086172;27;36711;-55
2022/07/06 11:24:05;;;;;;;5.95;1.02;;;20.80;86.70;;;;;;5086851;27;38132;-55
2022/07/06 11:26:35;;;;;;;3.95;0.80;;;20.80;85.90;;;;;;5083564;27;38809;-55
2022/07/06 11:29:06;;;;;;;2.33;0.50;;;20.70;84.70;;;;;;5087718;27;38382;-55
2022/07/06 11:31:39;;;;;;;4.65;0.70;;;20.60;83.60;;;;;;5089340;27;37160;-55
2022/07/06 11:34:10;;;;;;;3.28;0.50;;;20.60;84.60;;;;;;5089583;27;38371;-55
2022/07/06 11:36:38;;;;;;;6.72;0.90;;;20.70;84.60;;;;;;5089985;27;36641;-55
2022/07/06 11:39:06;;;;;;;4.97;0.63;;;20.70;85.40;;;;;;5088821;27;37688;-55
2022/07/06 11:41:33;;;;;;;3.10;0.70;;;20.80;87.00;;;;;;5090226;27;36016;-55
2022/07/06 11:44:01;;;;;;;1.42;0.60;;;20.90;86.20;;;;;;5089466;27;38656;-55
2022/07/06 11:46:31;;;;;;;3.08;0.55;;;21.10;85.20;;;;;;5089872;27;36902;-55
2022/07/06 11:49:00;;;;;;;3.00;0.68;;;21.20;83.60;;;;;;5088730;27;37164;-55
2022/07/06 11:51:29;;;;;;;1.95;0.60;;;21.10;83.40;;;;;;5089393;27;37749;-56
2022/07/06 11:54:01;;;;;;;3.42;0.73;;;21.00;83.20;;;;;;5089255;27;37407;-55
2022/07/06 11:56:30;;;;;;;2.90;0.57;;;20.90;82.90;;;;;;5087756;27;37370;-55
2022/07/06 11:58:59;;;;;;;4.75;0.70;;;20.90;83.10;;;;;;5088859;27;37565;-55
2022/07/06 12:01:27;;;;;;;3.13;0.70;;;20.90;83.00;;;;;;5090686;27;38014;-55
2022/07/06 12:04:00;;;;;;;3.97;0.77;;;20.80;83.40;;;;;;5088868;27;37353;-55
2022/07/06 12:06:28;;;;;;;3.38;0.75;;;20.80;82.30;;;;;;5089102;27;35302;-55
2022/07/06 12:08:57;;;;;;;7.10;0.68;;;20.80;82.70;;;;;;5089170;27;38785;-55
2022/07/06 12:11:26;;;;;;;2.60;0.57;;;20.80;83.70;;;;;;5084810;27;36098;-55
2022/07/06 12:13:56;;;;;;;5.40;0.85;;;20.70;82.20;;;;;;5086576;27;37859;-55
2022/07/06 12:16:30;;;;;;;2.60;0.65;;;20.50;82.10;;;;;;5086898;27;36559;-55
2022/07/06 12:18:59;;;;;;;2.38;0.65;;;20.40;83.10;;;;;;5085828;27;38506;-55
2022/07/06 12:21:26;;;;;;;5.82;0.63;;;20.30;83.40;;;;;;5086278;27;41693;-55
2022/07/06 12:23:55;;;;;;;1.85;0.55;;;20.30;85.00;;;;;;5085515;27;37484;-55
2022/07/06 12:26:25;;;;;;;2.60;0.50;;;20.30;87.60;;;;;;5085559;27;37366;-55
2022/07/06 12:29:05;;;;;;;3.30;0.47;;;20.40;87.10;;;;;;5086209;27;36612;-55
2022/07/06 12:31:34;;;;;;;2.72;1.42;;;20.50;88.90;;;;;;5087148;27;38140;-55
2022/07/06 12:34:03;;;;;;;3.95;0.80;;;20.50;87.00;;;;;;5086496;27;35633;-55
2022/07/06 12:36:31;;;;;;;3.53;0.60;;;20.50;85.20;;;;;;5087327;27;36411;-55
2022/07/06 12:38:59;;;;;;;3.17;0.88;;;20.50;84.40;;;;;;5086984;27;37339;-55
2022/07/06 12:41:28;;;;;;;2.30;0.70;;;20.50;84.50;;;;;;5087837;27;38362;-55
2022/07/06 12:44:05;;;;;;;1.67;0.43;;;20.40;84.70;;;;;;5087829;27;35885;-55
2022/07/06 12:46:34;;;;;;;2.85;0.80;;;20.30;84.40;;;;;;5088542;27;37872;-55
2022/07/06 12:49:04;;;;;;;8.80;0.98;;;20.20;86.40;;;;;;5084551;27;39342;-55
2022/07/06 12:51:57;;;;;;;2.05;0.57;;;20.20;86.50;;;;;;5085932;27;37746;-55
2022/07/06 12:54:30;;;;;;;2.95;0.60;;;20.20;86.30;;;;;;5088259;27;36621;-55
2022/07/06 12:57:05;;;;;;;2.58;0.60;;;20.10;86.50;;;;;;5088767;27;36909;-55
2022/07/06 12:59:34;;;;;;;4.53;0.93;;;20.10;86.00;;;;;;5088537;27;36317;-55